Time,TemperatureF,DewpointF,PressureIn,WindDirection,WindDirectionDegrees,WindSpeedMPH,WindSpeedGustMPH,Humidity,HourlyPrecipIn,Conditions,Clouds,dailyrainin,SoftwareType,DateUTC
2013-02-05 00:01:00,34.7,29.2,29.38,NW,308,10.0,12.0,80,0.00,RA,,0.00,WeatherDisplay:10.37,2013-02-05 00:01:00,
2013-02-05 00:16:00,34.5,29.6,29.38,West,276,5.0,12.0,82,0.00,CLR,,0.00,WeatherDisplay:10.37,2013-02-05 00:16:00,
2013-02-05 00:31:00,34.5,29.6,29.38,WSW,246,0.0,5.0,82,0.00,CLR,,0.00,WeatherDisplay:10.37,2013-02-05 00:31:00,
2013-02-05 00:46:00,34.5,29.6,29.38,WNW,300,3.0,6.0,82,0.00,CLR,,0.00,WeatherDisplay:10.37,2013-02-05 00:46:00,
2013-02-05 01:01:00,34.9,29.6,29.35,NNW,342,3.0,8.0,81,0.00,CLR,,0.00,WeatherDisplay:10.37,2013-02-05 01:01:00,
2013-02-05 01:16:00,34.9,29.6,29.35,WSW,255,5.0,12.0,81,0.00,CLR,,0.00,WeatherDisplay:10.37,2013-02-05 01:16:00,
2013-02-05 01:31:00,35.4,29.2,29.35,WNW,297,7.0,14.0,78,0.00,CLR,,0.00,WeatherDisplay:10.37,2013-02-05 01:31:00,
2013-02-05 01:46:00,35.4,29.2,29.35,West,279,8.0,16.0,78,0.00,CLR,,0.00,WeatherDisplay:10.37,2013-02-05 01:46:00,
2013-02-05 02:01:00,34.5,28.7,29.35,South,170,1.0,10.0,79,0.00,CLR,,0.00,WeatherDisplay:10.37,2013-02-05 02:01:00,
2013-02-05 02:16:00,34.5,29.0,29.35,West,265,0.0,6.0,80,0.00,CLR,,0.00,WeatherDisplay:10.37,2013-02-05 02:16:00,
2013-02-05 02:31:00,34.5,29.0,29.35,West,259,3.0,9.0,80,0.00,CLR,,0.00,WeatherDisplay:10.37,2013-02-05 02:31:00,
2013-02-05 02:46:00,34.5,29.0,29.32,West,267,3.0,5.0,80,0.00,CLR,,0.00,WeatherDisplay:10.37,2013-02-05 02:46:00,
2013-02-05 03:01:00,34.5,29.0,29.32,NW,317,0.0,5.0,80,0.00,CLR,,0.00,WeatherDisplay:10.37,2013-02-05 03:01:00,
2013-02-05 03:16:00,34.7,28.9,29.32,SW,230,9.0,9.0,79,0.00,CLR,,0.00,WeatherDisplay:10.37,2013-02-05 03:16:00,
2013-02-05 03:31:00,35.1,28.9,29.32,WNW,282,5.0,14.0,78,0.00,CLR,,0.00,WeatherDisplay:10.37,2013-02-05 03:31:00,
2013-02-05 03:46:00,35.2,28.8,29.29,West,263,5.0,10.0,77,0.00,CLR,,0.00,WeatherDisplay:10.37,2013-02-05 03:46:00,
2013-02-05 04:01:00,35.4,28.9,29.29,SSW,206,5.0,6.0,77,0.00,CLR,,0.00,WeatherDisplay:10.37,2013-02-05 04:01:00,
2013-02-05 04:15:00,35.2,28.4,29.29,West,267,5.0,8.0,76,0.00,CLR,,0.00,WeatherDisplay:10.37,2013-02-05 04:15:00,
2013-02-05 04:30:00,35.4,28.6,29.29,SW,232,3.0,6.0,76,0.00,CLR,,0.00,WeatherDisplay:10.37,2013-02-05 04:30:00,
2013-02-05 04:45:00,35.2,28.4,29.29,South,185,2.0,7.0,76,0.00,CLR,,0.00,WeatherDisplay:10.37,2013-02-05 04:45:00,
2013-02-05 05:01:00,35.4,28.0,29.26,WSW,242,2.0,9.0,74,0.00,CLR,,0.00,WeatherDisplay:10.37,2013-02-05 05:01:00,
2013-02-05 05:15:00,35.4,28.3,29.29,NW,305,3.0,10.0,75,0.00,CLR,,0.00,WeatherDisplay:10.37,2013-02-05 05:15:00,
2013-02-05 05:31:00,35.4,28.3,29.29,WSW,258,10.0,12.0,75,0.00,CLR,,0.00,WeatherDisplay:10.37,2013-02-05 05:31:00,
2013-02-05 05:45:00,35.4,27.6,29.26,West,263,12.0,12.0,73,0.00,CLR,,0.00,WeatherDisplay:10.37,2013-02-05 05:45:00,
2013-02-05 06:01:00,35.4,27.3,29.26,WNW,283,12.0,12.0,72,0.00,CLR,,0.00,WeatherDisplay:10.37,2013-02-05 06:01:00,
2013-02-05 06:15:00,35.8,27.3,29.26,West,279,5.0,13.0,71,0.00,CLR,,0.00,WeatherDisplay:10.37,2013-02-05 06:15:00,
2013-02-05 06:30:00,35.6,27.1,29.26,WSW,238,8.0,8.0,71,0.00,CLR,,0.00,WeatherDisplay:10.37,2013-02-05 06:30:00,
2013-02-05 06:45:00,35.6,27.1,29.26,SW,231,5.0,8.0,71,0.00,CLR,,0.00,WeatherDisplay:10.37,2013-02-05 06:45:00,
2013-02-05 07:01:00,36.0,28.1,29.26,West,272,16.0,17.0,73,0.00,CLR,,0.00,WeatherDisplay:10.37,2013-02-05 07:01:00,
2013-02-05 07:15:00,36.3,28.2,29.24,West,272,13.0,17.0,72,0.00,CLR,,0.00,WeatherDisplay:10.37,2013-02-05 07:15:00,
2013-02-05 07:30:00,36.5,28.3,29.24,WSW,251,12.0,14.0,72,0.00,CLR,,0.00,WeatherDisplay:10.37,2013-02-05 07:30:00,
2013-02-05 07:45:00,36.7,28.5,29.24,West,267,6.0,14.0,72,0.00,CLR,,0.00,WeatherDisplay:10.37,2013-02-05 07:45:00,
2013-02-05 08:01:00,36.7,28.5,29.24,West,262,15.0,15.0,72,0.00,CLR,,0.00,WeatherDisplay:10.37,2013-02-05 08:01:00,
2013-02-05 08:15:00,36.9,28.7,29.24,SW,223,13.0,17.0,72,0.00,CLR,,0.00,WeatherDisplay:10.37,2013-02-05 08:15:00,
2013-02-05 08:30:00,37.0,29.2,29.24,West,271,6.0,17.0,73,0.00,CLR,,0.00,WeatherDisplay:10.37,2013-02-05 08:30:00,
2013-02-05 08:45:00,36.9,30.0,29.20,SW,214,6.0,10.0,76,0.00,CLR,,0.00,WeatherDisplay:10.37,2013-02-05 08:45:00,
2013-02-05 09:01:00,36.5,30.9,29.20,WNW,286,7.0,9.0,80,0.00,CLR,,0.00,WeatherDisplay:10.37,2013-02-05 09:01:00,
2013-02-05 09:15:00,36.1,31.5,29.20,WSW,248,10.0,11.0,83,0.00,CLR,,0.00,WeatherDisplay:10.37,2013-02-05 09:15:00,
2013-02-05 09:30:00,36.0,31.9,29.18,SW,221,9.0,11.0,85,0.00,CLR,,0.00,WeatherDisplay:10.37,2013-02-05 09:30:00,
2013-02-05 09:45:00,35.8,32.3,29.18,WSW,254,8.0,10.0,87,0.00,CLR,,0.00,WeatherDisplay:10.37,2013-02-05 09:45:00,
2013-02-05 10:01:00,35.8,32.6,29.18,WSW,252,3.0,8.0,88,0.00,CLR,,0.00,WeatherDisplay:10.37,2013-02-05 10:01:00,
2013-02-05 10:15:00,35.8,32.6,29.18,SW,224,6.0,9.0,88,0.00,CLR,,0.00,WeatherDisplay:10.37,2013-02-05 10:15:00,
2013-02-05 10:30:00,36.0,33.1,29.18,WSW,238,5.0,6.0,89,0.00,,,0.04,WeatherDisplay:10.37,2013-02-05 10:30:00,
2013-02-05 10:45:00,36.3,33.7,29.15,SW,225,5.0,6.0,90,0.00,CLR,,0.04,WeatherDisplay:10.37,2013-02-05 10:45:00,
2013-02-05 11:01:00,36.9,34.5,29.15,SW,233,6.0,6.0,91,0.04,RA,,0.08,WeatherDisplay:10.37,2013-02-05 11:01:00,
2013-02-05 11:15:00,37.8,35.6,29.15,WSW,239,2.0,6.0,92,0.00,CLR,,0.08,WeatherDisplay:10.37,2013-02-05 11:15:00,
2013-02-05 11:30:00,38.7,36.8,29.15,WSW,248,6.0,6.0,93,0.04,RA,,0.12,WeatherDisplay:10.37,2013-02-05 11:30:00,
2013-02-05 11:45:00,39.8,38.2,29.15,NW,307,3.0,7.0,94,0.00,CLR,,0.12,WeatherDisplay:10.37,2013-02-05 11:45:00,
2013-02-05 12:01:00,40.6,38.8,29.15,NW,319,14.0,15.0,93,0.04,RA,,0.16,WeatherDisplay:10.37,2013-02-05 12:01:00,
2013-02-05 12:15:00,41.2,38.5,29.15,WNW,291,6.0,14.0,90,0.00,CLR,,0.16,WeatherDisplay:10.37,2013-02-05 12:15:00,
2013-02-05 12:30:00,41.9,38.6,29.15,WNW,292,13.0,14.0,88,0.00,,,0.20,WeatherDisplay:10.37,2013-02-05 12:30:00,
2013-02-05 12:45:00,43.0,39.1,29.15,NW,312,15.0,15.0,86,0.00,CLR,,0.20,WeatherDisplay:10.37,2013-02-05 12:45:00,
2013-02-05 13:00:00,43.2,38.0,29.15,WNW,294,17.0,27.0,82,0.04,RA,,0.24,WeatherDisplay:10.37,2013-02-05 13:00:00,
2013-02-05 13:15:00,42.6,37.8,29.15,NNW,328,14.0,19.0,83,0.00,CLR,,0.24,WeatherDisplay:10.37,2013-02-05 13:15:00,
2013-02-05 13:30:00,42.3,37.8,29.15,NW,325,7.0,13.0,84,0.00,CLR,,0.24,WeatherDisplay:10.37,2013-02-05 13:30:00,
2013-02-05 13:45:00,42.8,38.6,29.15,NW,308,10.0,15.0,85,0.00,CLR,,0.24,WeatherDisplay:10.37,2013-02-05 13:45:00,
2013-02-05 14:00:00,43.0,38.8,29.18,WNW,294,13.0,23.0,85,0.00,CLR,,0.24,WeatherDisplay:10.37,2013-02-05 14:00:00,
2013-02-05 14:15:00,43.3,39.1,29.18,NW,325,6.0,15.0,85,0.00,CLR,,0.24,WeatherDisplay:10.37,2013-02-05 14:15:00,
2013-02-05 14:30:00,42.6,38.4,29.15,WNW,297,10.0,23.0,85,0.00,CLR,,0.24,WeatherDisplay:10.37,2013-02-05 14:30:00,
2013-02-05 14:45:00,42.3,37.8,29.18,WNW,292,18.0,26.0,84,0.00,CLR,,0.24,WeatherDisplay:10.37,2013-02-05 14:45:00,
2013-02-05 15:00:00,42.6,38.4,29.18,NW,323,8.0,19.0,85,0.00,CLR,,0.24,WeatherDisplay:10.37,2013-02-05 15:00:00,
2013-02-05 15:15:00,42.8,38.3,29.18,NW,320,15.0,25.0,84,0.00,CLR,,0.24,WeatherDisplay:10.37,2013-02-05 15:15:00,
2013-02-05 15:30:00,42.5,38.0,29.20,NW,308,9.0,20.0,84,0.00,CLR,,0.24,WeatherDisplay:10.37,2013-02-05 15:30:00,
2013-02-05 15:45:00,42.4,37.9,29.20,WNW,299,14.0,24.0,84,0.00,CLR,,0.24,WeatherDisplay:10.37,2013-02-05 15:45:00,
2013-02-05 16:00:00,42.4,37.6,29.24,NNW,335,8.0,22.0,83,0.00,CLR,,0.24,WeatherDisplay:10.37,2013-02-05 16:00:00,
2013-02-05 16:15:00,42.1,37.0,29.26,NNW,339,12.0,13.0,82,0.00,CLR,,0.24,WeatherDisplay:10.37,2013-02-05 16:15:00,
2013-02-05 16:30:00,41.7,36.6,29.26,NNW,334,9.0,13.0,82,0.00,CLR,,0.24,WeatherDisplay:10.37,2013-02-05 16:30:00,
2013-02-05 16:45:00,41.4,36.3,29.26,NNW,335,10.0,12.0,82,0.00,CLR,,0.24,WeatherDisplay:10.37,2013-02-05 16:45:00,
2013-02-05 17:01:00,41.2,36.1,29.26,NW,321,6.0,17.0,82,0.00,CLR,,0.24,WeatherDisplay:10.37,2013-02-05 17:01:00,
2013-02-05 17:15:00,41.0,36.2,29.29,NNW,329,16.0,16.0,83,0.00,CLR,,0.24,WeatherDisplay:10.37,2013-02-05 17:15:00,
2013-02-05 17:30:00,40.8,36.4,29.29,NW,317,10.0,16.0,84,0.00,CLR,,0.24,WeatherDisplay:10.37,2013-02-05 17:30:00,
2013-02-05 17:45:00,40.6,36.2,29.32,NNW,340,8.0,10.0,84,0.00,CLR,,0.24,WeatherDisplay:10.37,2013-02-05 17:45:00,
2013-02-05 18:01:00,40.6,36.2,29.35,NNW,330,7.0,9.0,84,0.00,CLR,,0.24,WeatherDisplay:10.37,2013-02-05 18:01:00,
2013-02-05 18:15:00,40.6,36.5,29.35,NW,317,7.0,7.0,85,0.00,CLR,,0.24,WeatherDisplay:10.37,2013-02-05 18:15:00,
2013-02-05 18:30:00,40.6,36.5,29.35,NW,313,8.0,9.0,85,0.00,CLR,,0.24,WeatherDisplay:10.37,2013-02-05 18:30:00,
2013-02-05 18:45:00,40.5,36.3,29.38,NNW,329,3.0,10.0,85,0.00,CLR,,0.24,WeatherDisplay:10.37,2013-02-05 18:45:00,
2013-02-05 19:00:00,40.5,36.0,29.38,NNW,331,5.0,9.0,84,0.00,CLR,,0.24,WeatherDisplay:10.37,2013-02-05 19:00:00,
2013-02-05 19:15:00,40.6,35.9,29.38,NW,307,6.0,8.0,83,0.00,CLR,,0.24,WeatherDisplay:10.37,2013-02-05 19:15:00,
2013-02-05 19:30:00,40.6,35.5,29.41,NNW,335,7.0,8.0,82,0.00,CLR,,0.24,WeatherDisplay:10.37,2013-02-05 19:30:00,
2013-02-05 19:45:00,40.5,35.1,29.41,NNW,331,5.0,8.0,81,0.00,CLR,,0.24,WeatherDisplay:10.37,2013-02-05 19:45:00,
2013-02-05 20:00:00,40.6,35.0,29.44,North,357,3.0,8.0,80,0.00,CLR,,0.24,WeatherDisplay:10.37,2013-02-05 20:00:00,
2013-02-05 20:15:00,40.6,35.3,29.44,NW,326,6.0,9.0,81,0.00,CLR,,0.24,WeatherDisplay:10.37,2013-02-05 20:15:00,
2013-02-05 20:30:00,40.5,35.1,29.47,WNW,295,6.0,9.0,81,0.00,CLR,,0.24,WeatherDisplay:10.37,2013-02-05 20:30:00,
2013-02-05 20:45:00,41.7,33.7,29.47,North,0,21.0,26.0,73,0.00,CLR,,0.24,WeatherDisplay:10.37,2013-02-05 20:45:00,
2013-02-05 21:00:00,42.1,32.3,29.47,North,358,23.0,30.0,68,0.00,CLR,,0.24,WeatherDisplay:10.37,2013-02-05 21:00:00,
2013-02-05 21:15:00,41.9,31.8,29.50,NNE,15,23.0,25.0,67,0.00,CLR,,0.24,WeatherDisplay:10.37,2013-02-05 21:15:00,
2013-02-05 21:30:00,41.7,31.6,29.50,NNE,12,20.0,23.0,67,0.00,CLR,,0.24,WeatherDisplay:10.37,2013-02-05 21:30:00,
2013-02-05 21:45:00,41.5,31.4,29.53,NNE,13,24.0,24.0,67,0.00,CLR,,0.24,WeatherDisplay:10.37,2013-02-05 21:45:00,
2013-02-05 22:00:00,41.2,31.0,29.56,NNE,17,25.0,26.0,67,0.00,CLR,,0.24,WeatherDisplay:10.37,2013-02-05 22:00:00,
2013-02-05 22:15:00,41.4,30.5,29.56,North,5,20.0,25.0,65,0.00,CLR,,0.24,WeatherDisplay:10.37,2013-02-05 22:15:00,
2013-02-05 22:30:00,41.2,30.3,29.59,NNE,16,10.0,24.0,65,0.00,CLR,,0.24,WeatherDisplay:10.37,2013-02-05 22:30:00,
2013-02-05 22:45:00,40.8,30.0,29.62,NNE,20,18.0,29.0,65,0.00,CLR,,0.24,WeatherDisplay:10.37,2013-02-05 22:45:00,
2013-02-05 23:00:00,40.8,29.6,29.62,NE,35,16.0,23.0,64,0.00,CLR,,0.24,WeatherDisplay:10.37,2013-02-05 23:00:00,
2013-02-05 23:15:00,40.8,28.8,29.62,North,357,13.0,22.0,62,0.00,CLR,,0.24,WeatherDisplay:10.37,2013-02-05 23:15:00,
2013-02-05 23:30:00,40.8,28.0,29.65,North,6,16.0,25.0,60,0.00,CLR,,0.24,WeatherDisplay:10.37,2013-02-05 23:30:00,
2013-02-05 23:45:00,40.6,27.8,29.68,NNE,13,22.0,25.0,60,0.00,CLR,,0.24,WeatherDisplay:10.37,2013-02-05 23:45:00,